createdAt,value
2022-09-13T00:00:54.752Z,98105.06
2022-09-13T00:03:33.637Z,98114.41
2022-09-13T00:06:08.808Z,98100.94
2022-09-13T00:08:37.194Z,98103.53
2022-09-13T00:11:05.814Z,98112.00
2022-09-13T00:13:35.503Z,98108.38
2022-09-13T00:16:05.453Z,98101.59
2022-09-13T00:18:34.819Z,98092.16
2022-09-13T00:21:07.935Z,98092.91
2022-09-13T00:23:36.351Z,98098.06
2022-09-13T00:26:06.515Z,98086.78
2022-09-13T00:28:36.166Z,98087.25
2022-09-13T00:31:05.974Z,98096.91
2022-09-13T00:33:34.518Z,98091.50
2022-09-13T00:36:05.401Z,98085.28
2022-09-13T00:38:33.983Z,98082.28
2022-09-13T00:41:02.062Z,98081.84
2022-09-13T00:43:45.521Z,98070.94
2022-09-13T00:46:27.998Z,98075.88
2022-09-13T00:48:58.841Z,98072.84
2022-09-13T00:51:27.726Z,98076.94
2022-09-13T00:53:57.354Z,98075.44
2022-09-13T00:56:28.579Z,98082.75
2022-09-13T00:59:01.472Z,98077.69
2022-09-13T01:01:33.401Z,98074.78
2022-09-13T01:04:02.620Z,98071.25
2022-09-13T01:06:33.272Z,98080.31
2022-09-13T01:09:04.274Z,98081.63
2022-09-13T01:11:37.889Z,98072.34
2022-09-13T01:14:08.407Z,98076.78
2022-09-13T01:16:36.813Z,98077.63
2022-09-13T01:19:05.373Z,98080.69
2022-09-13T01:22:03.927Z,98082.88
2022-09-13T01:25:09.964Z,98073.56
2022-09-13T01:28:00.108Z,98079.66
2022-09-13T01:30:32.445Z,98069.16
2022-09-13T01:33:17.067Z,98060.66
2022-09-13T01:35:56.475Z,98059.97
2022-09-13T01:38:38.096Z,98058.88
2022-09-13T01:41:13.713Z,98061.50
2022-09-13T01:43:50.335Z,98063.88
2022-09-13T01:46:25.015Z,98066.50
2022-09-13T01:48:57.206Z,98068.47
2022-09-13T01:51:30.477Z,98059.34
2022-09-13T01:54:14.893Z,98052.03
2022-09-13T01:56:50.081Z,98057.09
2022-09-13T01:59:24.223Z,98050.47
2022-09-13T02:01:58.097Z,98047.84
2022-09-13T02:04:28.958Z,98040.56
2022-09-13T02:07:02.422Z,98035.84
2022-09-13T02:09:33.208Z,98036.97
2022-09-13T02:12:06.543Z,98040.41
2022-09-13T02:14:37.317Z,98039.44
2022-09-13T02:17:08.850Z,98034.22
2022-09-13T02:19:39.494Z,98037.16
2022-09-13T02:22:09.476Z,98033.38
2022-09-13T02:24:40.566Z,98028.53
2022-09-13T02:27:11.718Z,98018.13
2022-09-13T02:29:42.045Z,98025.44
2022-09-13T02:32:15.852Z,98018.88
2022-09-13T02:34:47.443Z,98020.06
2022-09-13T02:37:16.089Z,98025.00
2022-09-13T02:39:49.246Z,98016.66
2022-09-13T02:42:20.059Z,98005.63
2022-09-13T02:44:49.963Z,98007.56
2022-09-13T02:47:30.437Z,98004.94
2022-09-13T02:50:09.377Z,98007.75
2022-09-13T02:52:46.373Z,98006.91
2022-09-13T02:55:19.362Z,98008.88
2022-09-13T02:57:55.541Z,98008.06
2022-09-13T03:00:23.993Z,98003.25
2022-09-13T03:02:54.763Z,97996.03
2022-09-13T03:05:23.210Z,98005.38
2022-09-13T03:07:51.965Z,97997.22
2022-09-13T03:10:20.745Z,97990.44
2022-09-13T03:13:02.567Z,98000.75
2022-09-13T03:15:41.927Z,97989.09
2022-09-13T03:18:20.615Z,97992.81
2022-09-13T03:20:59.569Z,97990.56
2022-09-13T03:23:42.285Z,97987.75
2022-09-13T03:26:22.629Z,97976.56
2022-09-13T03:28:56.737Z,97986.94
2022-09-13T03:31:30.309Z,97985.66
2022-09-13T03:34:03.673Z,97985.19
2022-09-13T03:36:36.541Z,97986.31
2022-09-13T03:39:14.833Z,97986.66
2022-09-13T03:41:46.132Z,97989.59
2022-09-13T03:44:15.840Z,97987.81
2022-09-13T03:46:46.009Z,97983.09
2022-09-13T03:49:17.113Z,97983.09
2022-09-13T03:51:47.293Z,97987.84
2022-09-13T03:54:19.501Z,97977.13
2022-09-13T03:57:11.884Z,97974.84
2022-09-13T03:59:43.457Z,97978.56
2022-09-13T04:02:12.650Z,97974.81
2022-09-13T04:04:43.389Z,97971.72
2022-09-13T04:07:13.697Z,97977.56
2022-09-13T04:09:42.026Z,97973.97
2022-09-13T04:12:11.146Z,97976.53
2022-09-13T04:14:39.482Z,97970.81
2022-09-13T04:17:07.771Z,97969.19
2022-09-13T04:19:36.001Z,97977.66
2022-09-13T04:22:06.168Z,97974.00
2022-09-13T04:24:34.411Z,97977.78
2022-09-13T04:27:02.751Z,97974.91
2022-09-13T04:29:32.015Z,97973.94
2022-09-13T04:32:00.533Z,97979.47
2022-09-13T04:34:28.807Z,97980.28
2022-09-13T04:36:57.290Z,97979.50
2022-09-13T04:39:26.867Z,97977.59
2022-09-13T04:41:55.358Z,97981.19
2022-09-13T04:44:24.694Z,97984.75
2022-09-13T04:46:53.165Z,97985.03
2022-09-13T04:49:22.105Z,97991.78
2022-09-13T04:51:50.975Z,97991.25
2022-09-13T04:54:19.076Z,97984.53
2022-09-13T04:56:49.033Z,97983.66
2022-09-13T04:59:17.681Z,97984.84
2022-09-13T05:01:46.060Z,97983.53
2022-09-13T05:04:14.687Z,97971.59
2022-09-13T05:06:43.134Z,97978.03
2022-09-13T05:09:14.211Z,97978.72
2022-09-13T05:11:43.161Z,97981.06
2022-09-13T05:14:13.356Z,97971.56
2022-09-13T05:16:41.954Z,97972.34
2022-09-13T05:19:10.724Z,97968.97
2022-09-13T05:21:39.608Z,97970.63
2022-09-13T05:24:07.836Z,97970.25
2022-09-13T05:26:36.514Z,97972.44
2022-09-13T05:29:05.456Z,97973.59
2022-09-13T05:31:37.009Z,97970.72
2022-09-13T05:34:07.749Z,97970.13
2022-09-13T05:36:36.255Z,97966.41
2022-09-13T05:39:29.523Z,97967.72
2022-09-13T05:41:54.160Z,97966.03
2022-09-13T05:44:23.110Z,97969.13
2022-09-13T05:46:52.685Z,97971.72
2022-09-13T05:49:21.060Z,97970.53
2022-09-13T05:51:49.410Z,97968.91
2022-09-13T05:54:17.839Z,97974.84
2022-09-13T05:56:46.286Z,97970.19
2022-09-13T05:59:15.279Z,97971.13
2022-09-13T06:01:43.902Z,97966.91
2022-09-13T06:04:14.654Z,97977.91
2022-09-13T06:06:43.282Z,97972.22
2022-09-13T06:09:12.080Z,97977.59
2022-09-13T06:11:40.808Z,97972.81
2022-09-13T06:14:08.937Z,97974.09
2022-09-13T06:16:37.483Z,97972.97
2022-09-13T06:19:05.725Z,97977.91
2022-09-13T06:21:35.358Z,97977.09
2022-09-13T06:24:04.053Z,97971.56
2022-09-13T06:26:32.948Z,97972.69
2022-09-13T06:29:01.197Z,97968.44
2022-09-13T06:31:29.874Z,97970.47
2022-09-13T06:34:00.028Z,97973.97
2022-09-13T06:36:28.268Z,97970.59
2022-09-13T06:39:00.708Z,97966.59
2022-09-13T06:41:29.665Z,97971.28
2022-09-13T06:43:58.987Z,97980.28
2022-09-13T06:46:28.131Z,97965.59
2022-09-13T06:48:57.885Z,97967.44
2022-09-13T06:51:27.083Z,97965.75
2022-09-13T06:53:56.799Z,97963.34
2022-09-13T06:56:28.772Z,97967.56
2022-09-13T06:58:58.278Z,97956.59
2022-09-13T07:01:28.606Z,97962.34
2022-09-13T07:04:00.222Z,97958.75
2022-09-13T07:06:30.380Z,97963.34
2022-09-13T07:08:59.781Z,97960.38
2022-09-13T07:11:32.023Z,97948.78
2022-09-13T07:14:01.941Z,97946.06
2022-09-13T07:16:31.457Z,97951.03
2022-09-13T07:19:00.811Z,97956.19
2022-09-13T07:21:30.274Z,97944.97
2022-09-13T07:23:58.428Z,97943.66
2022-09-13T07:26:27.536Z,97947.63
2022-09-13T07:28:59.922Z,97952.81
2022-09-13T07:31:29.583Z,97939.91
2022-09-13T07:33:59.761Z,97945.59
2022-09-13T07:36:29.908Z,97933.25
2022-09-13T07:38:59.233Z,97930.50
2022-09-13T07:41:29.335Z,97934.63
2022-09-13T07:44:00.769Z,97940.03
2022-09-13T07:46:32.489Z,97939.34
2022-09-13T07:49:02.104Z,97941.13
2022-09-13T07:51:31.610Z,97940.16
2022-09-13T07:54:01.373Z,97936.22
2022-09-13T07:56:31.233Z,97940.31
2022-09-13T07:59:02.258Z,97955.72
2022-09-13T08:01:34.484Z,97942.03
2022-09-13T08:04:05.163Z,97941.91
2022-09-13T08:06:34.792Z,97936.03
2022-09-13T08:09:03.395Z,97936.34
2022-09-13T08:11:33.268Z,97938.47
2022-09-13T08:14:03.575Z,97933.97
2022-09-13T08:16:32.343Z,97945.41
2022-09-13T08:19:03.266Z,97929.69
2022-09-13T08:21:34.746Z,97932.25
2022-09-13T08:24:03.778Z,97920.41
2022-09-13T08:26:33.803Z,97925.22
2022-09-13T08:29:05.132Z,97922.97
2022-09-13T08:31:34.537Z,97909.72
2022-09-13T08:34:03.104Z,97912.03
2022-09-13T08:36:31.690Z,97902.75
2022-09-13T08:39:02.045Z,97906.47
2022-09-13T08:41:57.435Z,97906.31
2022-09-13T08:44:30.242Z,97905.06
2022-09-13T08:47:08.240Z,97903.09
2022-09-13T08:49:41.563Z,97902.09
2022-09-13T08:52:21.967Z,97891.41
2022-09-13T08:54:50.867Z,97895.59
2022-09-13T08:57:24.073Z,97892.72
2022-09-13T08:59:59.324Z,97887.75
2022-09-13T09:02:58.032Z,97892.94
2022-09-13T09:05:28.905Z,97894.47
2022-09-13T09:08:00.915Z,97886.38
2022-09-13T09:10:31.261Z,97894.28
2022-09-13T09:13:02.651Z,97880.09
2022-09-13T09:15:36.134Z,97889.78
2022-09-13T09:18:07.308Z,97881.00
2022-09-13T09:20:39.542Z,97873.50
2022-09-13T09:23:19.073Z,97871.78
2022-09-13T09:25:52.168Z,97868.00
2022-09-13T09:28:21.022Z,97878.25
2022-09-13T09:31:00.146Z,97876.19
2022-09-13T09:33:43.053Z,97874.69
2022-09-13T09:36:17.411Z,97875.41
2022-09-13T09:38:46.232Z,97883.41
2022-09-13T09:41:19.815Z,97875.75
2022-09-13T09:43:52.922Z,97873.78
2022-09-13T09:46:27.298Z,97864.88
2022-09-13T09:48:58.326Z,97859.16
2022-09-13T09:51:27.272Z,97860.97
2022-09-13T09:54:02.133Z,97854.41
2022-09-13T09:56:32.380Z,97844.25
2022-09-13T09:59:00.687Z,97838.34
2022-09-13T10:01:32.452Z,97850.22
2022-09-13T10:04:08.783Z,97841.78
2022-09-13T10:06:39.049Z,97833.31
2022-09-13T10:09:07.700Z,97838.50
2022-09-13T10:11:45.353Z,97842.16
2022-09-13T10:14:33.241Z,97836.72
2022-09-13T10:17:11.444Z,97833.47
2022-09-13T10:19:40.218Z,97832.84
2022-09-13T10:22:13.097Z,97829.84
2022-09-13T10:24:41.837Z,97822.53
2022-09-13T10:27:23.451Z,97832.03
2022-09-13T10:29:54.758Z,97827.44
2022-09-13T10:32:25.773Z,97822.41
2022-09-13T10:34:54.337Z,97815.88
2022-09-13T10:37:24.228Z,97818.91
2022-09-13T10:39:59.013Z,97826.88
2022-09-13T10:42:28.177Z,97824.59
2022-09-13T10:44:58.059Z,97818.16
2022-09-13T10:47:31.268Z,97816.94
2022-09-13T10:50:00.506Z,97814.94
2022-09-13T10:52:34.717Z,97809.84
2022-09-13T10:55:25.503Z,97804.91
2022-09-13T10:57:55.136Z,97799.16
2022-09-13T11:00:25.757Z,97802.41
2022-09-13T11:03:04.557Z,97790.22
2022-09-13T11:05:37.360Z,97786.63
2022-09-13T11:08:14.539Z,97796.94
2022-09-13T11:10:51.190Z,97786.47
2022-09-13T11:13:26.401Z,97785.38
2022-09-13T11:15:59.522Z,97783.97
2022-09-13T11:18:56.412Z,97784.00
2022-09-13T11:21:46.636Z,97765.44
2022-09-13T11:24:24.914Z,97770.31
2022-09-13T11:26:59.516Z,97759.13
2022-09-13T11:29:37.020Z,97755.69
2022-09-13T11:32:14.653Z,97752.09
2022-09-13T11:34:51.379Z,97742.22
2022-09-13T11:37:30.388Z,97739.88
2022-09-13T11:40:09.291Z,97732.00
2022-09-13T11:42:45.174Z,97721.41
2022-09-13T11:45:24.354Z,97721.69
2022-09-13T11:48:16.229Z,97705.38
2022-09-13T11:50:53.032Z,97702.09
2022-09-13T11:53:38.523Z,97703.06
2022-09-13T11:56:08.677Z,97703.25
2022-09-13T11:58:41.116Z,97700.09
2022-09-13T12:01:12.569Z,97710.91
2022-09-13T12:03:45.094Z,97705.22
2022-09-13T12:06:20.508Z,97696.03
2022-09-13T12:08:51.640Z,97682.28
2022-09-13T12:11:23.294Z,97677.63
2022-09-13T12:13:53.343Z,97677.25
2022-09-13T12:16:25.174Z,97674.06
2022-09-13T12:18:56.971Z,97677.88
2022-09-13T12:21:29.290Z,97677.25
2022-09-13T12:24:02.834Z,97676.34
2022-09-13T12:26:33.439Z,97684.63
2022-09-13T12:29:05.591Z,97681.81
2022-09-13T12:31:34.075Z,97672.25
2022-09-13T12:34:06.959Z,97671.97
2022-09-13T12:36:46.904Z,97663.28
2022-09-13T12:39:35.679Z,97661.84
2022-09-13T12:42:27.508Z,97655.97
2022-09-13T12:45:11.643Z,97660.63
2022-09-13T12:48:12.597Z,97668.31
2022-09-13T12:50:46.343Z,97667.31
2022-09-13T12:53:28.287Z,97660.91
2022-09-13T12:56:04.999Z,97651.84
2022-09-13T12:58:53.516Z,97650.25
2022-09-13T13:01:23.042Z,97653.06
2022-09-13T13:03:54.660Z,97651.84
2022-09-13T13:06:28.574Z,97653.97
2022-09-13T13:08:59.840Z,97646.28
2022-09-13T13:11:31.485Z,97643.63
2022-09-13T13:14:02.429Z,97645.47
2022-09-13T13:16:31.597Z,97635.38
2022-09-13T13:19:00.512Z,97628.38
2022-09-13T13:21:32.361Z,97638.03
2022-09-13T13:24:37.980Z,97631.97
2022-09-13T13:27:46.246Z,97622.59
2022-09-13T13:30:40.535Z,97635.44
2022-09-13T13:33:16.597Z,97632.63
2022-09-13T13:35:45.057Z,97629.81
2022-09-13T13:38:18.361Z,97633.19
2022-09-13T13:40:50.672Z,97625.16
2022-09-13T13:43:33.840Z,97624.59
2022-09-13T13:46:28.372Z,97623.16
2022-09-13T13:48:56.953Z,97620.78
2022-09-13T13:51:27.779Z,97617.28
2022-09-13T13:53:59.769Z,97622.38
2022-09-13T13:56:35.219Z,97613.44
2022-09-13T13:59:10.772Z,97611.78
2022-09-13T14:01:45.088Z,97612.31
2022-09-13T14:04:54.885Z,97599.59
2022-09-13T14:07:34.855Z,97592.41
2022-09-13T14:10:07.051Z,97590.44
2022-09-13T14:12:47.440Z,97586.41
2022-09-13T14:15:28.345Z,97589.78
2022-09-13T14:18:32.294Z,97585.13
2022-09-13T14:21:02.011Z,97579.00
2022-09-13T14:23:31.285Z,97583.22
2022-09-13T14:26:01.093Z,97583.03
2022-09-13T14:28:29.794Z,97579.53
2022-09-13T14:31:00.255Z,97580.13
2022-09-13T14:33:32.187Z,97589.34
2022-09-13T14:36:03.242Z,97586.00
2022-09-13T14:38:35.457Z,97582.94
2022-09-13T14:41:15.252Z,97586.16
2022-09-13T14:43:44.072Z,97573.91
2022-09-13T14:46:18.929Z,97572.00
2022-09-13T14:48:51.802Z,97580.19
2022-09-13T14:51:23.170Z,97576.25
2022-09-13T14:53:52.298Z,97574.41
2022-09-13T14:56:29.081Z,97571.56
2022-09-13T14:58:59.710Z,97568.03
2022-09-13T15:01:31.670Z,97561.47
2022-09-13T15:04:01.502Z,97553.72
2022-09-13T15:06:31.617Z,97549.63
2022-09-13T15:09:02.404Z,97551.97
2022-09-13T15:11:34.055Z,97563.13
2022-09-13T15:14:04.539Z,97537.22
2022-09-13T15:16:34.453Z,97543.63
2022-09-13T15:19:32.053Z,97552.06
2022-09-13T15:22:12.801Z,97533.72
2022-09-13T15:24:45.037Z,97543.53
2022-09-13T15:27:26.343Z,97537.63
2022-09-13T15:29:56.679Z,97543.91
2022-09-13T15:32:34.830Z,97551.94
2022-09-13T15:35:03.971Z,97544.06
2022-09-13T15:37:35.930Z,97547.25
2022-09-13T15:40:14.815Z,97541.63
2022-09-13T15:42:47.250Z,97534.09
2022-09-13T15:45:15.677Z,97536.19
2022-09-13T15:47:48.012Z,97530.53
2022-09-13T15:50:25.040Z,97530.50
2022-09-13T15:52:53.253Z,97529.81
2022-09-13T15:55:21.756Z,97540.22
2022-09-13T15:57:50.191Z,97533.00
2022-09-13T16:00:21.549Z,97541.72
2022-09-13T16:02:51.862Z,97540.81
2022-09-13T16:05:20.578Z,97540.91
2022-09-13T16:07:49.072Z,97546.94
2022-09-13T16:10:20.732Z,97544.03
2022-09-13T16:12:49.202Z,97544.13
2022-09-13T16:15:18.033Z,97540.50
2022-09-13T16:17:46.500Z,97537.28
2022-09-13T16:20:17.110Z,97533.91
2022-09-13T16:22:45.382Z,97532.88
2022-09-13T16:25:14.362Z,97536.84
2022-09-13T16:27:43.105Z,97533.66
2022-09-13T16:30:13.278Z,97531.22
2022-09-13T16:32:42.488Z,97533.72
2022-09-13T16:35:11.327Z,97523.69
2022-09-13T16:37:41.222Z,97518.84
2022-09-13T16:40:10.754Z,97536.13
2022-09-13T16:42:39.491Z,97535.78
2022-09-13T16:45:09.070Z,97532.16
2022-09-13T16:47:37.810Z,97535.41
2022-09-13T16:50:07.700Z,97536.22
2022-09-13T16:52:36.366Z,97537.44
2022-09-13T16:55:08.447Z,97537.03
2022-09-13T16:57:37.419Z,97528.22
2022-09-13T17:00:09.177Z,97542.59
2022-09-13T17:02:37.877Z,97544.91
2022-09-13T17:05:08.874Z,97536.03
2022-09-13T17:07:38.098Z,97526.00
2022-09-13T17:10:09.885Z,97520.94
2022-09-13T17:12:38.300Z,97520.03
2022-09-13T17:15:08.096Z,97526.84
2022-09-13T17:17:36.764Z,97520.38
2022-09-13T17:20:09.411Z,97516.09
2022-09-13T17:22:38.355Z,97517.13
2022-09-13T17:25:09.502Z,97518.00
2022-09-13T17:27:38.756Z,97513.44
2022-09-13T17:30:09.322Z,97517.78
2022-09-13T17:32:37.820Z,97514.09
2022-09-13T17:35:07.788Z,97521.19
2022-09-13T17:37:36.900Z,97516.72
2022-09-13T17:40:06.359Z,97518.38
2022-09-13T17:42:36.591Z,97516.47
2022-09-13T17:45:06.383Z,97521.50
2022-09-13T17:47:35.359Z,97522.88
2022-09-13T17:50:06.312Z,97519.19
2022-09-13T17:52:35.426Z,97520.38
2022-09-13T17:55:03.738Z,97519.22
2022-09-13T17:57:32.278Z,97510.19
2022-09-13T18:00:02.948Z,97511.97
2022-09-13T18:02:31.344Z,97513.69
2022-09-13T18:05:04.597Z,97519.75
2022-09-13T18:07:34.218Z,97507.66
2022-09-13T18:10:03.063Z,97513.31
2022-09-13T18:12:32.168Z,97510.84
2022-09-13T18:15:03.375Z,97507.53
2022-09-13T18:17:31.879Z,97513.69
2022-09-13T18:20:00.288Z,97519.28
2022-09-13T18:22:28.770Z,97520.78
2022-09-13T18:24:57.266Z,97512.81
2022-09-13T18:27:26.479Z,97515.22
2022-09-13T18:29:55.138Z,97511.94
2022-09-13T18:32:25.250Z,97510.91
2022-09-13T18:34:54.166Z,97512.28
2022-09-13T18:37:23.643Z,97514.31
2022-09-13T18:39:53.221Z,97515.84
2022-09-13T18:42:22.675Z,97520.59
2022-09-13T18:44:54.026Z,97506.31
2022-09-13T18:47:23.011Z,97509.50
2022-09-13T18:49:53.230Z,97509.72
2022-09-13T18:52:22.490Z,97505.88
2022-09-13T18:54:52.023Z,97513.03
2022-09-13T18:57:21.701Z,97508.97
2022-09-13T18:59:50.867Z,97499.78
2022-09-13T19:02:21.206Z,97510.72
2022-09-13T19:04:51.179Z,97512.09
2022-09-13T19:07:23.571Z,97515.97
2022-09-13T19:09:53.530Z,97514.38
2022-09-13T19:12:23.823Z,97507.81
2022-09-13T19:14:55.545Z,97513.91
2022-09-13T19:17:24.662Z,97511.31
2022-09-13T19:19:55.178Z,97492.97
2022-09-13T19:22:27.786Z,97504.91
2022-09-13T19:24:57.161Z,97496.09
2022-09-13T19:27:29.724Z,97499.53
2022-09-13T19:29:59.336Z,97488.47
2022-09-13T19:32:28.206Z,97501.63
2022-09-13T19:34:57.946Z,97490.97
2022-09-13T19:37:29.023Z,97494.31
2022-09-13T19:39:59.656Z,97495.38
2022-09-13T19:42:29.983Z,97488.03
2022-09-13T19:45:00.322Z,97479.03
2022-09-13T19:48:13.077Z,97488.69
2022-09-13T19:50:19.694Z,97483.69
2022-09-13T19:52:50.389Z,97478.84
2022-09-13T19:55:21.512Z,97477.63
2022-09-13T19:57:50.691Z,97465.09
2022-09-13T20:00:20.551Z,97482.94
2022-09-13T20:02:50.100Z,97478.25
2022-09-13T20:05:19.836Z,97471.38
2022-09-13T20:07:49.609Z,97475.09
2022-09-13T20:10:18.242Z,97468.28
2022-09-13T20:12:51.561Z,97474.03
2022-09-13T20:15:24.586Z,97465.94
2022-09-13T20:17:55.342Z,97478.84
2022-09-13T20:20:26.561Z,97478.31
2022-09-13T20:22:56.921Z,97466.91
2022-09-13T20:25:25.514Z,97469.78
2022-09-13T20:27:54.991Z,97475.34
2022-09-13T20:30:24.631Z,97470.72
2022-09-13T20:32:54.674Z,97477.63
2022-09-13T20:35:23.634Z,97469.72
2022-09-13T20:37:55.524Z,97471.72
2022-09-13T20:40:26.728Z,97464.69
2022-09-13T20:42:57.142Z,97465.38
2022-09-13T20:45:26.358Z,97468.66
2022-09-13T20:47:55.346Z,97463.75
2022-09-13T20:50:24.773Z,97457.56
2022-09-13T20:52:53.374Z,97462.75
2022-09-13T20:55:21.534Z,97468.97
2022-09-13T20:57:51.738Z,97461.53
2022-09-13T21:00:19.956Z,97467.09
2022-09-13T21:02:48.689Z,97469.16
2022-09-13T21:05:18.820Z,97472.38
2022-09-13T21:08:04.205Z,97471.59
2022-09-13T21:10:32.673Z,97461.84
2022-09-13T21:13:04.016Z,97464.25
2022-09-13T21:15:32.242Z,97466.78
2022-09-13T21:18:00.650Z,97464.19
2022-09-13T21:20:29.258Z,97469.00
2022-09-13T21:22:57.445Z,97467.06
2022-09-13T21:25:25.920Z,97470.69
2022-09-13T21:27:54.251Z,97468.66
2022-09-13T21:30:24.040Z,97458.72
2022-09-13T21:32:52.486Z,97451.84
2022-09-13T21:35:20.812Z,97465.00
2022-09-13T21:37:48.935Z,97466.19
2022-09-13T21:40:17.653Z,97468.63
2022-09-13T21:42:45.928Z,97454.25
2022-09-13T21:45:14.258Z,97458.22
2022-09-13T21:47:44.146Z,97448.09
2022-09-13T21:50:12.465Z,97454.81
2022-09-13T21:52:41.574Z,97451.66
2022-09-13T21:55:10.438Z,97454.72
2022-09-13T21:57:38.733Z,97459.06
2022-09-13T22:00:09.314Z,97460.44
2022-09-13T22:02:37.958Z,97458.16
2022-09-13T22:05:08.291Z,97440.91
2022-09-13T22:07:36.579Z,97449.31
2022-09-13T22:10:05.367Z,97445.38
2022-09-13T22:12:33.648Z,97449.31
2022-09-13T22:15:01.811Z,97439.16
2022-09-13T22:17:30.773Z,97436.41
2022-09-13T22:19:58.866Z,97438.91
2022-09-13T22:22:29.372Z,97422.59
2022-09-13T22:24:57.665Z,97441.28
2022-09-13T22:27:25.832Z,97442.88
2022-09-13T22:29:53.912Z,97431.00
2022-09-13T22:32:23.608Z,97413.56
2022-09-13T22:34:53.438Z,97427.81
2022-09-13T22:37:21.574Z,97424.56
2022-09-13T22:39:51.463Z,97424.59
2022-09-13T22:42:19.692Z,97419.00
2022-09-13T22:44:48.292Z,97419.84
2022-09-13T22:47:16.785Z,97418.91
2022-09-13T22:49:45.010Z,97413.72
2022-09-13T22:52:13.198Z,97405.81
2022-09-13T22:54:41.910Z,97425.41
2022-09-13T22:57:11.397Z,97428.78
2022-09-13T22:59:39.648Z,97433.59
2022-09-13T23:02:07.864Z,97432.44
2022-09-13T23:04:36.009Z,97430.59
2022-09-13T23:07:04.116Z,97428.69
2022-09-13T23:09:32.421Z,97423.72
2022-09-13T23:12:00.636Z,97428.56
2022-09-13T23:14:30.042Z,97424.25
2022-09-13T23:16:58.511Z,97424.84
2022-09-13T23:19:28.242Z,97433.28
2022-09-13T23:21:56.341Z,97417.44
2022-09-13T23:24:25.222Z,97419.53
2022-09-13T23:26:56.019Z,97407.97
2022-09-13T23:29:24.435Z,97417.09
2022-09-13T23:31:54.963Z,97411.59
2022-09-13T23:34:23.646Z,97410.34
2022-09-13T23:36:52.558Z,97409.19
2022-09-13T23:39:21.837Z,97416.84
2022-09-13T23:41:51.205Z,97410.94
2022-09-13T23:44:19.396Z,97403.63
2022-09-13T23:46:47.820Z,97402.31
2022-09-13T23:49:17.362Z,97406.00
2022-09-13T23:51:45.718Z,97404.91
2022-09-13T23:54:15.241Z,97407.25
2022-09-13T23:56:44.024Z,97415.38
2022-09-13T23:59:13.615Z,97408.09
